^^
Station Historical Data
Daily Summary for April 15, 2017 Units:  English    Metric   Both
« Previous Day
Next Day »
Daily Weekly Monthly Yearly Custom
  High: Low: Average:
Temperature: 64.0 °F 45.4 °F 55.3 °F
Dew Point: 54.6 °F 32.7 °F 41.7 °F
Humidity: 87% 35% 62%
Wind Speed: 7.0mph 0.0mph 2.2mph
Wind Gust: 18.0mph - -
Wind- - SSW
Pressure: 30.42 in 30.10 in -
Precipitation: 0.00 in    
Historical Graphs
 
 
Tabular Data for April 15, 2017
Time Temperature Dew Point Pressure Wind Wind Speed Wind Gust Humidity Rainfall Rate (Hourly) Conditions
00:00 46.0 °F 35.3 °F 30.42 in Calm   1.0 mph 66% 0.00 in CLR
00:15 46.0 °F 34.9 °F 30.41 in Calm     65% 0.00 in CLR
00:30 46.3 °F 35.2 °F 30.41 in Calm   1.0 mph 65% 0.00 in CLR
00:45 46.5 °F 34.6 °F 30.41 in Calm   1.0 mph 63% 0.00 in CLR
01:00 47.0 °F 34.6 °F 30.41 in Calm   1.0 mph 62% 0.00 in CLR
02:15 48.2 °F 35.8 °F 30.41 in Calm   3.0 mph 62% 0.00 in CLR
02:30 48.0 °F 36.0 °F 30.41 in Calm   3.0 mph 63% 0.00 in CLR
02:45 47.9 °F 35.9 °F 30.41 in SSW 1.0 mph 3.0 mph 63% 0.00 in CLR
03:00 48.1 °F 36.5 °F 30.41 in Calm   4.0 mph 64% 0.00 in CLR
03:15 47.9 °F 36.7 °F 30.41 in SW 1.0 mph 4.0 mph 65% 0.00 in CLR
03:30 48.0 °F 36.4 °F 30.41 in Calm   6.0 mph 64% 0.00 in CLR
03:45 47.7 °F 36.5 °F 30.40 in Calm   3.0 mph 65% 0.00 in CLR
04:00 47.1 °F 36.3 °F 30.40 in Calm   2.0 mph 66% 0.00 in CLR
04:15 46.6 °F 36.2 °F 30.40 in Calm   1.0 mph 67% 0.00 in CLR
04:30 45.5 °F 35.9 °F 30.40 in Calm   1.0 mph 69% 0.00 in CLR
04:45 45.4 °F 36.5 °F 30.39 in Calm   2.0 mph 71% 0.00 in CLR
05:00 45.8 °F 36.2 °F 30.39 in Calm   2.0 mph 69% 0.00 in CLR
05:15 46.5 °F 36.1 °F 30.39 in Calm   2.0 mph 67% 0.00 in CLR
05:30 46.0 °F 36.0 °F 30.39 in Calm   2.0 mph 68% 0.00 in CLR
05:45 45.7 °F 36.1 °F 30.39 in Calm   3.0 mph 69% 0.00 in CLR
06:00 46.0 °F 36.0 °F 30.39 in Calm   2.0 mph 68% 0.00 in CLR
06:15 45.9 °F 36.3 °F 30.39 in Calm   4.0 mph 69% 0.00 in CLR
06:30 46.2 °F 35.8 °F 30.39 in Calm   3.0 mph 67% 0.00 in CLR
06:45 46.2 °F 35.8 °F 30.39 in Calm   2.0 mph 67% 0.00 in CLR
07:00 46.2 °F 35.5 °F 30.39 in Calm     66% 0.00 in CLR
07:15 46.3 °F 35.6 °F 30.39 in Calm   1.0 mph 66% 0.00 in CLR
07:30 47.4 °F 35.8 °F 30.40 in Calm   4.0 mph 64% 0.00 in CLR
07:45 48.1 °F 36.5 °F 30.40 in Calm   3.0 mph 64% 0.00 in CLR
08:00 49.1 °F 36.2 °F 30.40 in South 1.0 mph 5.0 mph 61% 0.00 in CLR
08:15 50.5 °F 36.2 °F 30.41 in SSW 1.0 mph 7.0 mph 58% 0.00 in CLR
08:30 52.1 °F 36.4 °F 30.40 in SSW 3.0 mph 9.0 mph 55% 0.00 in CLR
08:45 53.3 °F 36.6 °F 30.40 in SSW 1.0 mph 12.0 mph 53% 0.00 in CLR
09:00 54.2 °F 36.5 °F 30.39 in SW 2.0 mph 10.0 mph 51% 0.00 in CLR
09:15 55.8 °F 36.9 °F 30.39 in South 6.0 mph 10.0 mph 49% 0.00 in CLR
09:30 56.3 °F 36.3 °F 30.39 in SSW 6.0 mph 12.0 mph 47% 0.00 in CLR
09:45 56.5 °F 36.0 °F 30.39 in SW 7.0 mph 12.0 mph 46% 0.00 in CLR
10:00 57.2 °F 36.0 °F 30.38 in South 6.0 mph 14.0 mph 45% 0.00 in CLR
10:30 58.7 °F 34.4 °F 30.38 in SSW 7.0 mph 18.0 mph 40% 0.00 in FEW
10:45 60.6 °F 36.1 °F 30.38 in SSW 6.0 mph 12.0 mph 40% 0.00 in FEW
11:00 60.5 °F 32.7 °F 30.38 in SSW 6.0 mph 14.0 mph 35% 0.00 in FEW
11:15 61.0 °F 34.6 °F 30.37 in SSW 3.0 mph 12.0 mph 37% 0.00 in CLR
11:30 61.3 °F 36.1 °F 30.36 in SSW 3.0 mph 14.0 mph 39% 0.00 in CLR
11:45 61.5 °F 35.6 °F 30.35 in SW 3.0 mph 13.0 mph 38% 0.00 in CLR
12:00 61.8 °F 38.4 °F 30.35 in SSE 2.0 mph 7.0 mph 42% 0.00 in CLR
12:15 60.9 °F 37.0 °F 30.34 in SW 6.0 mph 10.0 mph 41% 0.00 in BKN
12:30 60.6 °F 36.8 °F 30.33 in SSW 3.0 mph 9.0 mph 41% 0.00 in BKN
12:45 60.8 °F 37.5 °F 30.33 in SSW 2.0 mph 14.0 mph 42% 0.00 in BKN
13:00 61.0 °F 37.7 °F 30.33 in South 5.0 mph 9.0 mph 42% 0.00 in BKN
13:15 61.4 °F 39.3 °F 30.32 in SSW 7.0 mph 14.0 mph 44% 0.00 in BKN
13:30 61.0 °F 40.6 °F 30.32 in South 5.0 mph 15.0 mph 47% 0.00 in BKN
13:45 60.7 °F 39.2 °F 30.32 in SSW 3.0 mph 12.0 mph 45% 0.00 in BKN
14:00 60.9 °F 37.7 °F 30.31 in SSW 5.0 mph 8.0 mph 42% 0.00 in BKN
14:15 60.6 °F 38.5 °F 30.30 in SSW 6.0 mph 12.0 mph 44% 0.00 in BKN
14:30 60.3 °F 38.9 °F 30.29 in South 3.0 mph 15.0 mph 45% 0.00 in BKN
14:45 60.5 °F 40.7 °F 30.28 in SSE 2.0 mph 13.0 mph 48% 0.00 in BKN
15:00 61.5 °F 41.6 °F 30.26 in SW 5.0 mph 12.0 mph 48% 0.00 in BKN
15:15 61.3 °F 42.0 °F 30.25 in SSW 3.0 mph 12.0 mph 49% 0.00 in BKN
15:30 61.9 °F 42.5 °F 30.24 in SW 6.0 mph 10.0 mph 49% 0.00 in BKN
15:45 61.5 °F 44.2 °F 30.24 in SSW 1.0 mph 10.0 mph 53% 0.00 in BKN
16:00 61.1 °F 44.4 °F 30.23 in SSE 2.0 mph 8.0 mph 54% 0.00 in BKN
16:15 62.0 °F 45.2 °F 30.22 in SSW 1.0 mph 9.0 mph 54% 0.00 in BKN
16:30 62.5 °F 45.1 °F 30.21 in SSW 1.0 mph 8.0 mph 53% 0.00 in BKN
16:45 62.9 °F 46.0 °F 30.21 in South 3.0 mph 9.0 mph 54% 0.00 in BKN
17:00 64.0 °F 46.5 °F 30.20 in South 3.0 mph 12.0 mph 53% 0.00 in BKN
17:15 63.9 °F 47.4 °F 30.19 in SSW 3.0 mph 8.0 mph 55% 0.00 in SCT
17:30 62.8 °F 47.8 °F 30.19 in South 7.0 mph 12.0 mph 58% 0.00 in SCT
17:45 62.8 °F 48.7 °F 30.19 in South 2.0 mph 10.0 mph 60% 0.00 in SCT
18:00 61.2 °F 48.9 °F 30.19 in SW 2.0 mph 13.0 mph 64% 0.00 in SCT
18:15 59.9 °F 49.3 °F 30.18 in SSW 1.0 mph 9.0 mph 68% 0.00 in BKN
18:30 60.0 °F 50.6 °F 30.19 in South 2.0 mph 9.0 mph 71% 0.00 in BKN
18:45 59.5 °F 51.2 °F 30.19 in South 3.0 mph 10.0 mph 74% 0.00 in BKN
19:00 59.2 °F 51.3 °F 30.19 in South 3.0 mph 8.0 mph 75% 0.00 in BKN
19:15 59.0 °F 51.8 °F 30.17 in SSW 1.0 mph 5.0 mph 77% 0.00 in BKN
19:30 58.7 °F 51.9 °F 30.16 in SSW 1.0 mph 8.0 mph 78% 0.00 in BKN
19:45 58.1 °F 51.3 °F 30.16 in South 1.0 mph 7.0 mph 78% 0.00 in BKN
20:00 57.6 °F 51.1 °F 30.16 in SSW 2.0 mph 7.0 mph 79% 0.00 in BKN
20:15 57.5 °F 51.0 °F 30.15 in South 2.0 mph 8.0 mph 79% 0.00 in FEW
20:30 57.6 °F 51.5 °F 30.15 in South 5.0 mph 9.0 mph 80% 0.00 in FEW
20:45 57.7 °F 51.6 °F 30.15 in South 5.0 mph 12.0 mph 80% 0.00 in FEW
21:00 57.7 °F 51.6 °F 30.15 in SSW 3.0 mph 8.0 mph 80% 0.00 in FEW
21:15 57.5 °F 51.7 °F 30.14 in South 3.0 mph 6.0 mph 81% 0.00 in FEW
21:30 57.4 °F 52.0 °F 30.14 in South 3.0 mph 8.0 mph 82% 0.00 in FEW
21:45 57.7 °F 52.2 °F 30.14 in South 3.0 mph 8.0 mph 82% 0.00 in FEW
22:00 57.5 °F 52.4 °F 30.13 in South 1.0 mph 9.0 mph 83% 0.00 in FEW
22:15 57.5 °F 52.4 °F 30.13 in South 2.0 mph 8.0 mph 83% 0.00 in CLR
22:30 57.5 °F 52.7 °F 30.12 in South 2.0 mph 8.0 mph 84% 0.00 in CLR
22:45 57.3 °F 52.8 °F 30.11 in Calm   5.0 mph 85% 0.00 in CLR
23:00 57.3 °F 53.1 °F 30.11 in SSW 2.0 mph 5.0 mph 86% 0.00 in CLR
23:15 57.8 °F 54.0 °F 30.11 in SSW 2.0 mph 7.0 mph 87% 0.00 in CLR
23:30 58.1 °F 54.2 °F 30.10 in South 1.0 mph 7.0 mph 87% 0.00 in CLR
23:45 58.5 °F 54.6 °F 30.10 in South 3.0 mph 8.0 mph 87% 0.00 in CLR
TarryTown NY Weather
Compliments of Weather Underground - 1.5 mb